sensor_id;sensor_type;location;lat;lon;timestamp;pressure;altitude;pressure_sealevel;temperature;humidity
36234;BME280;43467;50.890;5.982;2023-12-20T00:01:01;100170.06;;;9.24;96.76
36234;BME280;43467;50.890;5.982;2023-12-20T00:03:27;100167.31;;;9.27;95.70
36234;BME280;43467;50.890;5.982;2023-12-20T00:05:52;100180.56;;;9.25;95.31
36234;BME280;43467;50.890;5.982;2023-12-20T00:08:17;100182.47;;;9.22;95.45
36234;BME280;43467;50.890;5.982;2023-12-20T00:10:44;100176.09;;;9.27;95.13
36234;BME280;43467;50.890;5.982;2023-12-20T00:13:10;100176.13;;;9.26;94.74
36234;BME280;43467;50.890;5.982;2023-12-20T00:18:06;100173.03;;;9.16;94.59
36234;BME280;43467;50.890;5.982;2023-12-20T00:20:32;100189.44;;;9.24;95.13
36234;BME280;43467;50.890;5.982;2023-12-20T00:22:58;100197.41;;;9.23;94.29
36234;BME280;43467;50.890;5.982;2023-12-20T00:25:24;100205.59;;;9.17;95.14
36234;BME280;43467;50.890;5.982;2023-12-20T00:27:50;100213.75;;;9.11;94.43
36234;BME280;43467;50.890;5.982;2023-12-20T00:30:16;100218.25;;;9.09;94.95
36234;BME280;43467;50.890;5.982;2023-12-20T00:32:41;100212.13;;;8.85;96.05
36234;BME280;43467;50.890;5.982;2023-12-20T00:35:12;100204.03;;;8.68;96.79
36234;BME280;43467;50.890;5.982;2023-12-20T00:37:38;100216.09;;;8.73;97.16
36234;BME280;43467;50.890;5.982;2023-12-20T00:40:04;100230.84;;;8.79;94.16
36234;BME280;43467;50.890;5.982;2023-12-20T00:42:29;100234.19;;;8.37;91.85
36234;BME280;43467;50.890;5.982;2023-12-20T00:44:55;100233.63;;;8.28;91.82
36234;BME280;43467;50.890;5.982;2023-12-20T00:47:20;100243.50;;;7.98;87.46
36234;BME280;43467;50.890;5.982;2023-12-20T00:49:46;100258.13;;;7.82;87.26
36234;BME280;43467;50.890;5.982;2023-12-20T00:52:11;100260.16;;;7.74;87.35
36234;BME280;43467;50.890;5.982;2023-12-20T00:54:36;100258.16;;;7.80;87.60
36234;BME280;43467;50.890;5.982;2023-12-20T00:57:02;100245.09;;;7.51;88.26
36234;BME280;43467;50.890;5.982;2023-12-20T00:59:28;100251.84;;;7.60;87.69
36234;BME280;43467;50.890;5.982;2023-12-20T01:01:54;100267.47;;;7.66;87.65
36234;BME280;43467;50.890;5.982;2023-12-20T01:04:19;100274.84;;;7.55;86.84
36234;BME280;43467;50.890;5.982;2023-12-20T01:06:45;100273.97;;;7.54;87.77
36234;BME280;43467;50.890;5.982;2023-12-20T01:09:10;100258.25;;;7.51;87.33
36234;BME280;43467;50.890;5.982;2023-12-20T01:11:35;100265.56;;;7.43;87.59
36234;BME280;43467;50.890;5.982;2023-12-20T01:14:01;100249.03;;;7.38;87.83
36234;BME280;43467;50.890;5.982;2023-12-20T01:16:26;100248.84;;;7.44;87.44
36234;BME280;43467;50.890;5.982;2023-12-20T01:18:52;100258.41;;;7.46;87.54
36234;BME280;43467;50.890;5.982;2023-12-20T01:21:17;100269.53;;;7.56;87.62
36234;BME280;43467;50.890;5.982;2023-12-20T01:23:42;100259.28;;;7.73;87.52
36234;BME280;43467;50.890;5.982;2023-12-20T01:26:08;100252.13;;;7.77;87.29
36234;BME280;43467;50.890;5.982;2023-12-20T01:28:34;100254.63;;;7.81;87.33
36234;BME280;43467;50.890;5.982;2023-12-20T01:30:59;100246.44;;;7.89;87.78
36234;BME280;43467;50.890;5.982;2023-12-20T01:33:25;100258.75;;;7.88;87.50
36234;BME280;43467;50.890;5.982;2023-12-20T01:35:50;100246.22;;;7.95;87.26
36234;BME280;43467;50.890;5.982;2023-12-20T01:38:15;100247.69;;;8.04;87.68
36234;BME280;43467;50.890;5.982;2023-12-20T01:40:44;100250.38;;;8.02;87.03
36234;BME280;43467;50.890;5.982;2023-12-20T01:43:09;100251.44;;;7.97;87.37
36234;BME280;43467;50.890;5.982;2023-12-20T01:45:36;100247.91;;;7.98;87.22
36234;BME280;43467;50.890;5.982;2023-12-20T01:48:04;100266.25;;;8.01;87.44
36234;BME280;43467;50.890;5.982;2023-12-20T01:50:30;100259.47;;;7.93;87.64
36234;BME280;43467;50.890;5.982;2023-12-20T01:52:58;100268.28;;;7.92;88.24
36234;BME280;43467;50.890;5.982;2023-12-20T01:55:27;100263.44;;;7.80;88.25
36234;BME280;43467;50.890;5.982;2023-12-20T01:57:55;100254.53;;;7.83;88.80
36234;BME280;43467;50.890;5.982;2023-12-20T02:00:22;100259.28;;;7.73;88.99
36234;BME280;43467;50.890;5.982;2023-12-20T02:02:50;100260.00;;;7.78;88.51
36234;BME280;43467;50.890;5.982;2023-12-20T02:05:16;100260.84;;;7.79;88.48
36234;BME280;43467;50.890;5.982;2023-12-20T02:07:42;100273.72;;;7.88;88.09
36234;BME280;43467;50.890;5.982;2023-12-20T02:10:08;100273.94;;;7.82;87.66
36234;BME280;43467;50.890;5.982;2023-12-20T02:12:33;100282.59;;;7.85;87.77
36234;BME280;43467;50.890;5.982;2023-12-20T02:14:59;100277.66;;;7.75;88.10
36234;BME280;43467;50.890;5.982;2023-12-20T02:17:25;100266.44;;;7.70;88.56
36234;BME280;43467;50.890;5.982;2023-12-20T02:19:51;100274.13;;;7.76;88.18
36234;BME280;43467;50.890;5.982;2023-12-20T02:22:16;100266.09;;;7.79;87.90
36234;BME280;43467;50.890;5.982;2023-12-20T02:24:42;100261.09;;;7.71;87.90
36234;BME280;43467;50.890;5.982;2023-12-20T02:27:07;100277.81;;;7.70;88.53
36234;BME280;43467;50.890;5.982;2023-12-20T02:29:36;100269.06;;;7.70;87.86
36234;BME280;43467;50.890;5.982;2023-12-20T02:32:02;100279.50;;;7.73;87.77
36234;BME280;43467;50.890;5.982;2023-12-20T02:34:28;100278.53;;;7.75;88.20
36234;BME280;43467;50.890;5.982;2023-12-20T02:36:54;100275.00;;;7.76;87.79
36234;BME280;43467;50.890;5.982;2023-12-20T02:39:20;100273.56;;;7.66;87.76
36234;BME280;43467;50.890;5.982;2023-12-20T02:41:46;100290.19;;;7.68;87.91
36234;BME280;43467;50.890;5.982;2023-12-20T02:44:11;100287.34;;;7.48;88.22
36234;BME280;43467;50.890;5.982;2023-12-20T02:46:36;100273.22;;;7.51;88.67
36234;BME280;43467;50.890;5.982;2023-12-20T02:49:02;100274.38;;;7.42;88.63
36234;BME280;43467;50.890;5.982;2023-12-20T02:51:27;100267.06;;;7.50;88.59
36234;BME280;43467;50.890;5.982;2023-12-20T02:53:52;100266.28;;;7.48;88.58
36234;BME280;43467;50.890;5.982;2023-12-20T02:56:18;100276.53;;;7.57;88.46
36234;BME280;43467;50.890;5.982;2023-12-20T02:58:43;100267.88;;;7.54;87.64
36234;BME280;43467;50.890;5.982;2023-12-20T03:01:09;100281.25;;;7.46;88.07
36234;BME280;43467;50.890;5.982;2023-12-20T03:03:34;100287.31;;;7.50;88.65
36234;BME280;43467;50.890;5.982;2023-12-20T03:06:00;100288.06;;;7.53;88.22
36234;BME280;43467;50.890;5.982;2023-12-20T03:08:25;100286.59;;;7.44;87.85
36234;BME280;43467;50.890;5.982;2023-12-20T03:10:50;100278.44;;;7.52;88.51
36234;BME280;43467;50.890;5.982;2023-12-20T03:13:16;100270.66;;;7.49;87.77
36234;BME280;43467;50.890;5.982;2023-12-20T03:15:41;100273.13;;;7.54;87.78
36234;BME280;43467;50.890;5.982;2023-12-20T03:18:07;100283.81;;;7.49;88.11
36234;BME280;43467;50.890;5.982;2023-12-20T03:20:32;100272.34;;;7.50;87.55
36234;BME280;43467;50.890;5.982;2023-12-20T03:23:00;100283.59;;;7.55;87.47
36234;BME280;43467;50.890;5.982;2023-12-20T03:25:25;100281.84;;;7.56;88.07
36234;BME280;43467;50.890;5.982;2023-12-20T03:27:51;100288.94;;;7.54;87.96
36234;BME280;43467;50.890;5.982;2023-12-20T03:30:16;100284.81;;;7.45;87.44
36234;BME280;43467;50.890;5.982;2023-12-20T03:32:41;100268.56;;;7.32;87.58
36234;BME280;43467;50.890;5.982;2023-12-20T03:35:07;100267.66;;;7.33;88.18
36234;BME280;43467;50.890;5.982;2023-12-20T03:37:32;100272.13;;;7.30;88.35
36234;BME280;43467;50.890;5.982;2023-12-20T03:39:58;100273.06;;;7.29;87.97
36234;BME280;43467;50.890;5.982;2023-12-20T03:42:23;100270.50;;;7.26;88.58
36234;BME280;43467;50.890;5.982;2023-12-20T03:44:49;100260.47;;;7.09;88.63
36234;BME280;43467;50.890;5.982;2023-12-20T03:47:14;100266.63;;;7.10;88.96
36234;BME280;43467;50.890;5.982;2023-12-20T03:49:39;100257.69;;;7.15;89.54
36234;BME280;43467;50.890;5.982;2023-12-20T03:52:05;100258.97;;;7.02;89.16
36234;BME280;43467;50.890;5.982;2023-12-20T03:54:30;100270.09;;;7.12;89.13
36234;BME280;43467;50.890;5.982;2023-12-20T03:56:56;100271.31;;;7.00;88.61
36234;BME280;43467;50.890;5.982;2023-12-20T03:59:21;100257.72;;;7.14;89.26
36234;BME280;43467;50.890;5.982;2023-12-20T04:01:47;100270.47;;;6.99;88.95
36234;BME280;43467;50.890;5.982;2023-12-20T04:04:13;100265.19;;;6.99;89.05
36234;BME280;43467;50.890;5.982;2023-12-20T04:06:38;100260.88;;;6.97;89.54
36234;BME280;43467;50.890;5.982;2023-12-20T04:09:03;100262.28;;;7.09;89.55
36234;BME280;43467;50.890;5.982;2023-12-20T04:11:29;100266.94;;;7.00;89.62
36234;BME280;43467;50.890;5.982;2023-12-20T04:13:54;100274.13;;;6.94;90.14
36234;BME280;43467;50.890;5.982;2023-12-20T04:16:19;100263.56;;;6.95;90.65
36234;BME280;43467;50.890;5.982;2023-12-20T04:18:46;100277.84;;;6.87;90.13
36234;BME280;43467;50.890;5.982;2023-12-20T04:21:11;100269.75;;;6.93;90.54
36234;BME280;43467;50.890;5.982;2023-12-20T04:23:36;100271.47;;;6.95;90.10
36234;BME280;43467;50.890;5.982;2023-12-20T04:26:02;100260.06;;;6.95;89.83
36234;BME280;43467;50.890;5.982;2023-12-20T04:28:27;100267.34;;;6.87;89.99
36234;BME280;43467;50.890;5.982;2023-12-20T04:30:55;100273.13;;;6.98;90.19
36234;BME280;43467;50.890;5.982;2023-12-20T04:33:21;100275.81;;;6.96;90.06
36234;BME280;43467;50.890;5.982;2023-12-20T04:35:46;100270.72;;;6.90;89.80
36234;BME280;43467;50.890;5.982;2023-12-20T04:38:12;100280.22;;;6.96;90.19
36234;BME280;43467;50.890;5.982;2023-12-20T04:40:37;100288.25;;;6.91;90.51
36234;BME280;43467;50.890;5.982;2023-12-20T04:43:03;100293.25;;;7.00;90.15
36234;BME280;43467;50.890;5.982;2023-12-20T04:45:28;100288.06;;;6.97;90.29
36234;BME280;43467;50.890;5.982;2023-12-20T04:47:53;100283.84;;;6.92;90.40
36234;BME280;43467;50.890;5.982;2023-12-20T04:50:19;100290.81;;;6.93;90.34
36234;BME280;43467;50.890;5.982;2023-12-20T04:52:45;100285.75;;;6.87;90.38
36234;BME280;43467;50.890;5.982;2023-12-20T04:55:10;100282.13;;;6.91;90.41
36234;BME280;43467;50.890;5.982;2023-12-20T04:57:36;100274.84;;;6.99;90.31
36234;BME280;43467;50.890;5.982;2023-12-20T05:00:01;100277.44;;;7.00;90.37
36234;BME280;43467;50.890;5.982;2023-12-20T05:02:27;100273.47;;;6.87;90.09
36234;BME280;43467;50.890;5.982;2023-12-20T05:04:52;100288.00;;;6.99;90.44
36234;BME280;43467;50.890;5.982;2023-12-20T05:07:18;100277.44;;;7.00;90.15
36234;BME280;43467;50.890;5.982;2023-12-20T05:09:43;100287.78;;;7.07;90.11
36234;BME280;43467;50.890;5.982;2023-12-20T05:12:09;100287.66;;;7.11;89.70
36234;BME280;43467;50.890;5.982;2023-12-20T05:14:34;100271.22;;;7.03;89.34
36234;BME280;43467;50.890;5.982;2023-12-20T05:16:59;100278.16;;;7.06;90.29
36234;BME280;43467;50.890;5.982;2023-12-20T05:19:25;100287.06;;;7.01;89.84
36234;BME280;43467;50.890;5.982;2023-12-20T05:21:51;100273.84;;;7.03;89.82
36234;BME280;43467;50.890;5.982;2023-12-20T05:24:17;100286.81;;;7.09;89.36
36234;BME280;43467;50.890;5.982;2023-12-20T05:26:42;100276.25;;;7.11;89.57
36234;BME280;43467;50.890;5.982;2023-12-20T05:29:07;100279.91;;;7.05;89.80
36234;BME280;43467;50.890;5.982;2023-12-20T05:31:33;100270.25;;;7.06;89.28
36234;BME280;43467;50.890;5.982;2023-12-20T05:33:59;100269.25;;;7.10;88.96
36234;BME280;43467;50.890;5.982;2023-12-20T05:36:24;100271.09;;;7.08;88.51
36234;BME280;43467;50.890;5.982;2023-12-20T05:38:49;100269.31;;;7.08;88.98
36234;BME280;43467;50.890;5.982;2023-12-20T05:41:15;100270.25;;;7.06;89.17
36234;BME280;43467;50.890;5.982;2023-12-20T05:43:41;100270.47;;;6.99;88.74
36234;BME280;43467;50.890;5.982;2023-12-20T05:46:06;100264.91;;;7.09;88.88
36234;BME280;43467;50.890;5.982;2023-12-20T05:48:32;100266.63;;;7.10;88.72
36234;BME280;43467;50.890;5.982;2023-12-20T05:50:57;100267.56;;;7.09;88.61
36234;BME280;43467;50.890;5.982;2023-12-20T05:53:23;100280.75;;;7.07;88.53
36234;BME280;43467;50.890;5.982;2023-12-20T05:55:48;100267.56;;;7.09;88.14
36234;BME280;43467;50.890;5.982;2023-12-20T05:58:13;100289.63;;;7.05;88.26
36234;BME280;43467;50.890;5.982;2023-12-20T06:00:39;100278.88;;;7.11;88.51
36234;BME280;43467;50.890;5.982;2023-12-20T06:03:04;100279.22;;;7.00;88.05
36234;BME280;43467;50.890;5.982;2023-12-20T06:05:30;100282.09;;;6.92;88.50
36234;BME280;43467;50.890;5.982;2023-12-20T06:07:56;100280.38;;;6.90;88.70
36234;BME280;43467;50.890;5.982;2023-12-20T06:10:26;100285.78;;;6.85;89.12
36234;BME280;43467;50.890;5.982;2023-12-20T06:12:52;100285.63;;;6.91;88.86
36234;BME280;43467;50.890;5.982;2023-12-20T06:15:17;100290.91;;;6.90;88.89
36234;BME280;43467;50.890;5.982;2023-12-20T06:17:42;100288.34;;;6.88;88.15
36234;BME280;43467;50.890;5.982;2023-12-20T06:20:08;100292.63;;;6.92;88.47
36234;BME280;43467;50.890;5.982;2023-12-20T06:22:35;100295.66;;;6.79;88.21
36234;BME280;43467;50.890;5.982;2023-12-20T06:25:01;100280.00;;;6.74;88.43
36234;BME280;43467;50.890;5.982;2023-12-20T06:27:27;100292.56;;;6.94;88.43
36234;BME280;43467;50.890;5.982;2023-12-20T06:29:52;100295.19;;;6.94;87.92
36234;BME280;43467;50.890;5.982;2023-12-20T06:32:18;100291.91;;;6.86;87.82
36234;BME280;43467;50.890;5.982;2023-12-20T06:34:43;100291.81;;;6.89;88.24
36234;BME280;43467;50.890;5.982;2023-12-20T06:37:09;100297.31;;;6.81;88.09
36234;BME280;43467;50.890;5.982;2023-12-20T06:39:34;100295.91;;;6.99;88.27
36234;BME280;43467;50.890;5.982;2023-12-20T06:42:00;100298.72;;;6.93;87.38
36234;BME280;43467;50.890;5.982;2023-12-20T06:44:25;100300.97;;;7.05;88.01
36234;BME280;43467;50.890;5.982;2023-12-20T06:46:51;100299.13;;;6.79;88.11
36234;BME280;43467;50.890;5.982;2023-12-20T06:49:16;100310.22;;;6.90;87.94
36234;BME280;43467;50.890;5.982;2023-12-20T06:51:42;100324.56;;;6.80;87.96
36234;BME280;43467;50.890;5.982;2023-12-20T06:54:07;100319.34;;;6.77;88.41
36234;BME280;43467;50.890;5.982;2023-12-20T06:56:32;100318.28;;;6.84;88.54
36234;BME280;43467;50.890;5.982;2023-12-20T06:58:58;100315.06;;;6.75;88.50
36234;BME280;43467;50.890;5.982;2023-12-20T07:01:24;100308.16;;;6.71;88.79
36234;BME280;43467;50.890;5.982;2023-12-20T07:03:49;100290.06;;;6.60;89.09
36234;BME280;43467;50.890;5.982;2023-12-20T07:06:14;100302.88;;;6.72;88.95
36234;BME280;43467;50.890;5.982;2023-12-20T07:08:41;100313.44;;;6.71;88.97
36234;BME280;43467;50.890;5.982;2023-12-20T07:11:07;100320.34;;;6.73;89.08
36234;BME280;43467;50.890;5.982;2023-12-20T07:13:32;100314.31;;;6.70;88.90
36234;BME280;43467;50.890;5.982;2023-12-20T07:15:57;100311.59;;;6.73;88.52
36234;BME280;43467;50.890;5.982;2023-12-20T07:18:23;100300.25;;;6.72;88.88
36234;BME280;43467;50.890;5.982;2023-12-20T07:20:48;100292.00;;;6.53;89.15
36234;BME280;43467;50.890;5.982;2023-12-20T07:23:14;100286.06;;;6.47;89.12
36234;BME280;43467;50.890;5.982;2023-12-20T07:25:39;100294.81;;;6.47;89.58
36234;BME280;43467;50.890;5.982;2023-12-20T07:28:05;100292.19;;;6.47;89.27
36234;BME280;43467;50.890;5.982;2023-12-20T07:30:30;100299.13;;;6.48;89.27
36234;BME280;43467;50.890;5.982;2023-12-20T07:32:55;100303.34;;;6.56;88.70
36234;BME280;43467;50.890;5.982;2023-12-20T07:35:22;100300.97;;;6.46;89.25
36234;BME280;43467;50.890;5.982;2023-12-20T07:37:48;100297.69;;;6.38;89.75
36234;BME280;43467;50.890;5.982;2023-12-20T07:40:13;100296.59;;;6.45;89.36
36234;BME280;43467;50.890;5.982;2023-12-20T07:42:39;100295.97;;;6.36;89.77
36234;BME280;43467;50.890;5.982;2023-12-20T07:45:04;100299.53;;;6.35;89.67
36234;BME280;43467;50.890;5.982;2023-12-20T07:47:30;100294.41;;;6.30;90.03
36234;BME280;43467;50.890;5.982;2023-12-20T07:49:55;100296.06;;;6.33;90.05
36234;BME280;43467;50.890;5.982;2023-12-20T07:52:21;100289.16;;;6.30;90.02
36234;BME280;43467;50.890;5.982;2023-12-20T07:54:47;100298.75;;;6.31;89.93
36234;BME280;43467;50.890;5.982;2023-12-20T07:57:13;100290.16;;;6.25;89.74
36234;BME280;43467;50.890;5.982;2023-12-20T07:59:38;100285.78;;;6.25;89.90
36234;BME280;43467;50.890;5.982;2023-12-20T08:02:04;100303.03;;;6.35;89.55
36234;BME280;43467;50.890;5.982;2023-12-20T08:04:29;100300.34;;;6.37;89.23
36234;BME280;43467;50.890;5.982;2023-12-20T08:06:55;100296.13;;;6.31;89.82
36234;BME280;43467;50.890;5.982;2023-12-20T08:09:20;100302.50;;;6.23;89.74
36234;BME280;43467;50.890;5.982;2023-12-20T08:11:46;100295.50;;;6.22;90.27
36234;BME280;43467;50.890;5.982;2023-12-20T08:14:12;100291.88;;;6.27;89.79
36234;BME280;43467;50.890;5.982;2023-12-20T08:16:38;100302.41;;;6.26;89.62
36234;BME280;43467;50.890;5.982;2023-12-20T08:19:03;100298.63;;;6.36;89.48
36234;BME280;43467;50.890;5.982;2023-12-20T08:21:28;100295.72;;;6.45;88.88
36234;BME280;43467;50.890;5.982;2023-12-20T08:23:54;100292.44;;;6.38;88.68
36234;BME280;43467;50.890;5.982;2023-12-20T08:26:20;100284.53;;;6.38;88.72
36234;BME280;43467;50.890;5.982;2023-12-20T08:28:46;100283.53;;;6.42;88.67
36234;BME280;43467;50.890;5.982;2023-12-20T08:31:16;100279.22;;;6.40;88.92
36234;BME280;43467;50.890;5.982;2023-12-20T08:33:44;100294.63;;;6.53;88.61
36234;BME280;43467;50.890;5.982;2023-12-20T08:36:09;100302.56;;;6.52;88.73
36234;BME280;43467;50.890;5.982;2023-12-20T08:38:35;100297.25;;;6.53;88.50
36234;BME280;43467;50.890;5.982;2023-12-20T08:41:01;100303.28;;;6.57;88.17
36234;BME280;43467;50.890;5.982;2023-12-20T08:43:28;100310.50;;;6.50;88.18
36234;BME280;43467;50.890;5.982;2023-12-20T08:45:53;100310.28;;;6.58;88.36
36234;BME280;43467;50.890;5.982;2023-12-20T08:48:19;100322.75;;;6.51;88.11
36234;BME280;43467;50.890;5.982;2023-12-20T08:50:44;100319.19;;;6.52;87.97
36234;BME280;43467;50.890;5.982;2023-12-20T08:53:10;100335.13;;;6.48;87.83
36234;BME280;43467;50.890;5.982;2023-12-20T08:55:35;100334.13;;;6.52;87.97
36234;BME280;43467;50.890;5.982;2023-12-20T08:58:01;100329.69;;;6.54;87.67
36234;BME280;43467;50.890;5.982;2023-12-20T09:00:26;100325.16;;;6.59;87.60
36234;BME280;43467;50.890;5.982;2023-12-20T09:02:53;100332.34;;;6.52;87.47
36234;BME280;43467;50.890;5.982;2023-12-20T09:05:19;100321.00;;;6.50;87.53
36234;BME280;43467;50.890;5.982;2023-12-20T09:07:45;100315.72;;;6.52;87.35
36234;BME280;43467;50.890;5.982;2023-12-20T09:10:10;100299.97;;;6.50;87.37
36234;BME280;43467;50.890;5.982;2023-12-20T09:12:35;100307.78;;;6.53;87.55
36234;BME280;43467;50.890;5.982;2023-12-20T09:15:05;100303.94;;;6.65;87.30
36234;BME280;43467;50.890;5.982;2023-12-20T09:17:30;100316.19;;;6.66;86.91
36234;BME280;43467;50.890;5.982;2023-12-20T09:19:56;100310.13;;;6.64;87.35
36234;BME280;43467;50.890;5.982;2023-12-20T09:22:21;100304.66;;;6.70;86.97
36234;BME280;43467;50.890;5.982;2023-12-20T09:24:47;100305.41;;;6.75;86.90
36234;BME280;43467;50.890;5.982;2023-12-20T09:27:13;100296.59;;;6.76;86.83
36234;BME280;43467;50.890;5.982;2023-12-20T09:29:38;100285.97;;;6.79;86.62
36234;BME280;43467;50.890;5.982;2023-12-20T09:32:04;100268.19;;;6.87;86.27
36234;BME280;43467;50.890;5.982;2023-12-20T09:34:29;100277.88;;;6.85;86.19
36234;BME280;43467;50.890;5.982;2023-12-20T09:36:55;100291.97;;;6.84;86.31
36234;BME280;43467;50.890;5.982;2023-12-20T09:39:21;100283.00;;;6.91;86.15
36234;BME280;43467;50.890;5.982;2023-12-20T09:41:56;100292.66;;;6.91;86.04
36234;BME280;43467;50.890;5.982;2023-12-20T09:44:25;100299.78;;;6.87;86.21
36234;BME280;43467;50.890;5.982;2023-12-20T09:46:50;100298.41;;;7.04;85.99
36234;BME280;43467;50.890;5.982;2023-12-20T09:49:18;100301.16;;;7.00;85.60
36234;BME280;43467;50.890;5.982;2023-12-20T09:51:46;100307.94;;;7.08;85.65
36234;BME280;43467;50.890;5.982;2023-12-20T09:54:15;100310.84;;;6.98;85.46
36234;BME280;43467;50.890;5.982;2023-12-20T09:56:41;100293.31;;;6.97;85.73
36234;BME280;43467;50.890;5.982;2023-12-20T09:59:06;100298.22;;;7.10;85.37
36234;BME280;43467;50.890;5.982;2023-12-20T10:01:32;100307.88;;;7.09;85.39
36234;BME280;43467;50.890;5.982;2023-12-20T10:04:00;100304.78;;;6.96;85.52
36234;BME280;43467;50.890;5.982;2023-12-20T10:06:26;100299.69;;;6.90;85.80
36234;BME280;43467;50.890;5.982;2023-12-20T10:08:52;100296.69;;;7.03;86.03
36234;BME280;43467;50.890;5.982;2023-12-20T10:11:18;100304.31;;;7.12;85.43
36234;BME280;43467;50.890;5.982;2023-12-20T10:13:45;100296.59;;;7.06;85.33
36234;BME280;43467;50.890;5.982;2023-12-20T10:16:12;100287.00;;;7.03;85.45
36234;BME280;43467;50.890;5.982;2023-12-20T10:18:37;100278.91;;;7.09;85.28
36234;BME280;43467;50.890;5.982;2023-12-20T10:21:03;100286.53;;;7.18;85.23
36234;BME280;43467;50.890;5.982;2023-12-20T10:23:29;100274.31;;;7.17;84.97
36234;BME280;43467;50.890;5.982;2023-12-20T10:25:59;100254.88;;;7.21;84.64
36234;BME280;43467;50.890;5.982;2023-12-20T10:28:25;100257.50;;;7.21;84.44
36234;BME280;43467;50.890;5.982;2023-12-20T10:30:53;100250.44;;;7.22;84.24
36234;BME280;43467;50.890;5.982;2023-12-20T10:33:29;100250.53;;;7.19;84.39
36234;BME280;43467;50.890;5.982;2023-12-20T10:35:57;100258.41;;;7.20;84.15
36234;BME280;43467;50.890;5.982;2023-12-20T10:38:22;100245.97;;;7.25;84.14
36234;BME280;43467;50.890;5.982;2023-12-20T10:40:49;100256.25;;;7.33;84.34
36234;BME280;43467;50.890;5.982;2023-12-20T10:43:19;100242.34;;;7.28;83.79
36234;BME280;43467;50.890;5.982;2023-12-20T10:45:45;100257.19;;;7.30;84.28
36234;BME280;43467;50.890;5.982;2023-12-20T10:48:10;100249.03;;;7.38;84.11
36234;BME280;43467;50.890;5.982;2023-12-20T10:50:40;100260.25;;;7.44;84.37
36234;BME280;43467;50.890;5.982;2023-12-20T10:53:06;100259.16;;;7.50;83.81
36234;BME280;43467;50.890;5.982;2023-12-20T10:55:33;100261.03;;;7.46;83.58
36234;BME280;43467;50.890;5.982;2023-12-20T10:58:09;100256.09;;;7.37;83.70
36234;BME280;43467;50.890;5.982;2023-12-20T11:00:39;100259.56;;;7.38;84.10
36234;BME280;43467;50.890;5.982;2023-12-20T11:03:09;100268.69;;;7.54;83.80
36234;BME280;43467;50.890;5.982;2023-12-20T11:06:00;100258.47;;;7.45;83.68
36234;BME280;43467;50.890;5.982;2023-12-20T11:08:40;100273.94;;;7.56;83.55
36234;BME280;43467;50.890;5.982;2023-12-20T11:11:24;100254.72;;;7.52;83.65
36234;BME280;43467;50.890;5.982;2023-12-20T11:14:01;100243.75;;;7.38;83.00
36234;BME280;43467;50.890;5.982;2023-12-20T11:16:27;100241.97;;;7.40;83.59
36234;BME280;43467;50.890;5.982;2023-12-20T11:18:52;100233.03;;;7.44;83.47
36234;BME280;43467;50.890;5.982;2023-12-20T11:21:18;100232.00;;;7.50;83.61
36234;BME280;43467;50.890;5.982;2023-12-20T11:23:43;100231.63;;;7.60;83.27
36234;BME280;43467;50.890;5.982;2023-12-20T11:26:09;100229.97;;;7.58;83.18
36234;BME280;43467;50.890;5.982;2023-12-20T11:28:34;100235.91;;;7.63;83.41
36234;BME280;43467;50.890;5.982;2023-12-20T11:31:03;100231.63;;;7.60;83.42
36234;BME280;43467;50.890;5.982;2023-12-20T11:33:36;100224.84;;;7.53;83.25
36234;BME280;43467;50.890;5.982;2023-12-20T11:36:02;100228.09;;;7.61;83.42
36234;BME280;43467;50.890;5.982;2023-12-20T11:38:38;100218.41;;;7.62;83.15
36234;BME280;43467;50.890;5.982;2023-12-20T11:41:06;100222.75;;;7.63;83.42
36234;BME280;43467;50.890;5.982;2023-12-20T11:43:38;100236.66;;;7.66;83.35
36234;BME280;43467;50.890;5.982;2023-12-20T11:46:05;100223.34;;;7.71;83.06
36234;BME280;43467;50.890;5.982;2023-12-20T11:48:32;100229.69;;;7.65;83.09
36234;BME280;43467;50.890;5.982;2023-12-20T11:50:57;100233.81;;;7.74;83.20
36234;BME280;43467;50.890;5.982;2023-12-20T11:53:23;100231.22;;;7.72;83.34
36234;BME280;43467;50.890;5.982;2023-12-20T11:55:49;100219.84;;;7.70;83.48
36234;BME280;43467;50.890;5.982;2023-12-20T11:58:14;100210.31;;;7.66;83.87
36234;BME280;43467;50.890;5.982;2023-12-20T12:00:41;100209.38;;;7.69;83.78
36234;BME280;43467;50.890;5.982;2023-12-20T12:03:08;100196.47;;;7.61;83.52
36234;BME280;43467;50.890;5.982;2023-12-20T12:05:33;100192.66;;;7.70;83.69
36234;BME280;43467;50.890;5.982;2023-12-20T12:07:58;100189.91;;;7.73;83.46
36234;BME280;43467;50.890;5.982;2023-12-20T12:10:24;100185.28;;;7.79;83.60
36234;BME280;43467;50.890;5.982;2023-12-20T12:12:49;100188.84;;;7.78;83.43
36234;BME280;43467;50.890;5.982;2023-12-20T12:15:15;100173.19;;;7.74;83.82
36234;BME280;43467;50.890;5.982;2023-12-20T12:17:41;100186.38;;;7.74;84.00
36234;BME280;43467;50.890;5.982;2023-12-20T12:20:07;100182.56;;;7.82;83.71
36234;BME280;43467;50.890;5.982;2023-12-20T12:22:33;100178.31;;;7.78;83.47
36234;BME280;43467;50.890;5.982;2023-12-20T12:24:59;100193.84;;;7.86;83.63
36234;BME280;43467;50.890;5.982;2023-12-20T12:27:34;100191.03;;;7.90;83.32
36234;BME280;43467;50.890;5.982;2023-12-20T12:30:01;100190.22;;;7.88;83.96
36234;BME280;43467;50.890;5.982;2023-12-20T12:32:28;100189.31;;;7.89;83.84
36234;BME280;43467;50.890;5.982;2023-12-20T12:34:53;100186.38;;;7.74;84.48
36234;BME280;43467;50.890;5.982;2023-12-20T12:37:19;100180.53;;;7.64;85.43
36234;BME280;43467;50.890;5.982;2023-12-20T12:39:46;100182.75;;;7.76;86.11
36234;BME280;43467;50.890;5.982;2023-12-20T12:42:12;100179.84;;;7.84;86.85
36234;BME280;43467;50.890;5.982;2023-12-20T12:44:37;100162.69;;;7.72;86.89
36234;BME280;43467;50.890;5.982;2023-12-20T12:47:03;100160.66;;;7.80;87.01
36234;BME280;43467;50.890;5.982;2023-12-20T12:49:28;100155.38;;;7.80;87.09
36234;BME280;43467;50.890;5.982;2023-12-20T12:51:54;100158.88;;;7.81;87.35
36234;BME280;43467;50.890;5.982;2023-12-20T12:54:23;100148.91;;;7.89;86.88
36234;BME280;43467;50.890;5.982;2023-12-20T12:56:49;100146.16;;;7.92;87.37